sensor_id;sensor_type;location;lat;lon;timestamp;temperature;humidity
10472;DHT22;5283;48.876;8.962;2024-01-30T00:01:55;-0.60;99.90
10472;DHT22;5283;48.876;8.962;2024-01-30T00:04:22;-0.50;99.90
10472;DHT22;5283;48.876;8.962;2024-01-30T00:06:50;-0.60;99.90
10472;DHT22;5283;48.876;8.962;2024-01-30T00:09:17;-0.60;99.90
10472;DHT22;5283;48.876;8.962;2024-01-30T00:11:43;-0.70;99.90
10472;DHT22;5283;48.876;8.962;2024-01-30T00:14:10;-0.50;99.90
10472;DHT22;5283;48.876;8.962;2024-01-30T00:16:37;-0.60;99.90
10472;DHT22;5283;48.876;8.962;2024-01-30T00:19:03;-0.60;99.90
10472;DHT22;5283;48.876;8.962;2024-01-30T00:21:30;-0.70;99.90
10472;DHT22;5283;48.876;8.962;2024-01-30T00:23:57;-0.70;99.90
10472;DHT22;5283;48.876;8.962;2024-01-30T00:26:24;-0.70;99.90
10472;DHT22;5283;48.876;8.962;2024-01-30T00:28:50;-0.60;99.90
10472;DHT22;5283;48.876;8.962;2024-01-30T00:31:17;-0.40;99.90
10472;DHT22;5283;48.876;8.962;2024-01-30T00:33:44;-0.40;99.90
10472;DHT22;5283;48.876;8.962;2024-01-30T00:36:10;-0.30;99.90
10472;DHT22;5283;48.876;8.962;2024-01-30T00:38:37;-0.20;99.90
10472;DHT22;5283;48.876;8.962;2024-01-30T00:41:04;-0.20;99.90
10472;DHT22;5283;48.876;8.962;2024-01-30T00:43:31;-0.20;99.90
10472;DHT22;5283;48.876;8.962;2024-01-30T00:45:58;-0.20;99.90
10472;DHT22;5283;48.876;8.962;2024-01-30T00:48:25;-0.10;99.90
10472;DHT22;5283;48.876;8.962;2024-01-30T00:50:52;-0.10;99.90
10472;DHT22;5283;48.876;8.962;2024-01-30T00:53:18;-0.10;99.90
10472;DHT22;5283;48.876;8.962;2024-01-30T00:55:45;-0.10;99.90
10472;DHT22;5283;48.876;8.962;2024-01-30T00:58:12;-0.20;99.90
10472;DHT22;5283;48.876;8.962;2024-01-30T01:00:39;-0.30;99.90
10472;DHT22;5283;48.876;8.962;2024-01-30T01:03:06;-0.40;99.90
10472;DHT22;5283;48.876;8.962;2024-01-30T01:05:32;-0.40;99.90
10472;DHT22;5283;48.876;8.962;2024-01-30T01:07:59;-0.50;99.90
10472;DHT22;5283;48.876;8.962;2024-01-30T01:10:26;-0.50;99.90
10472;DHT22;5283;48.876;8.962;2024-01-30T01:12:53;-0.50;99.90
10472;DHT22;5283;48.876;8.962;2024-01-30T01:15:20;-0.50;99.90
10472;DHT22;5283;48.876;8.962;2024-01-30T01:17:47;-0.50;99.90
10472;DHT22;5283;48.876;8.962;2024-01-30T01:20:14;-0.50;99.90
10472;DHT22;5283;48.876;8.962;2024-01-30T01:22:40;-0.50;99.90
10472;DHT22;5283;48.876;8.962;2024-01-30T01:25:08;-0.60;99.90
10472;DHT22;5283;48.876;8.962;2024-01-30T01:27:36;-0.70;99.90
10472;DHT22;5283;48.876;8.962;2024-01-30T01:30:09;-0.80;99.90
10472;DHT22;5283;48.876;8.962;2024-01-30T01:32:36;-0.90;99.90
10472;DHT22;5283;48.876;8.962;2024-01-30T01:35:03;-1.00;99.90
10472;DHT22;5283;48.876;8.962;2024-01-30T01:37:32;-0.90;99.90
10472;DHT22;5283;48.876;8.962;2024-01-30T01:39:59;-1.00;99.90
10472;DHT22;5283;48.876;8.962;2024-01-30T01:42:26;-1.00;99.90
10472;DHT22;5283;48.876;8.962;2024-01-30T01:44:53;-1.10;99.90
10472;DHT22;5283;48.876;8.962;2024-01-30T01:47:20;-1.10;99.90
10472;DHT22;5283;48.876;8.962;2024-01-30T01:49:47;-0.90;99.90
10472;DHT22;5283;48.876;8.962;2024-01-30T01:52:14;-0.90;99.90
10472;DHT22;5283;48.876;8.962;2024-01-30T01:54:41;-1.00;99.90
10472;DHT22;5283;48.876;8.962;2024-01-30T01:57:07;-0.90;99.90
10472;DHT22;5283;48.876;8.962;2024-01-30T01:59:34;-1.00;99.90
10472;DHT22;5283;48.876;8.962;2024-01-30T02:02:02;-1.00;99.90
10472;DHT22;5283;48.876;8.962;2024-01-30T02:04:30;-1.10;99.90
10472;DHT22;5283;48.876;8.962;2024-01-30T02:06:56;-1.10;99.90
10472;DHT22;5283;48.876;8.962;2024-01-30T02:09:23;-1.20;99.90
10472;DHT22;5283;48.876;8.962;2024-01-30T02:11:50;-1.20;99.90
10472;DHT22;5283;48.876;8.962;2024-01-30T02:14:16;-1.10;99.90
10472;DHT22;5283;48.876;8.962;2024-01-30T02:16:43;-1.10;99.90
10472;DHT22;5283;48.876;8.962;2024-01-30T02:19:10;-1.20;99.90
10472;DHT22;5283;48.876;8.962;2024-01-30T02:21:37;-1.30;99.90
10472;DHT22;5283;48.876;8.962;2024-01-30T02:24:04;-1.30;99.90
10472;DHT22;5283;48.876;8.962;2024-01-30T02:26:32;-1.20;99.90
10472;DHT22;5283;48.876;8.962;2024-01-30T02:28:58;-1.20;99.90
10472;DHT22;5283;48.876;8.962;2024-01-30T02:31:25;-1.20;99.90
10472;DHT22;5283;48.876;8.962;2024-01-30T02:33:52;-1.20;99.90
10472;DHT22;5283;48.876;8.962;2024-01-30T02:36:19;-1.20;99.90
10472;DHT22;5283;48.876;8.962;2024-01-30T02:38:46;-1.00;99.90
10472;DHT22;5283;48.876;8.962;2024-01-30T02:41:13;-1.00;99.90
10472;DHT22;5283;48.876;8.962;2024-01-30T02:43:39;-1.00;99.90
10472;DHT22;5283;48.876;8.962;2024-01-30T02:46:06;-1.00;99.90
10472;DHT22;5283;48.876;8.962;2024-01-30T02:48:33;-1.00;99.90
10472;DHT22;5283;48.876;8.962;2024-01-30T02:51:00;-1.10;99.90
10472;DHT22;5283;48.876;8.962;2024-01-30T02:53:26;-1.20;99.90
10472;DHT22;5283;48.876;8.962;2024-01-30T02:55:53;-1.20;99.90
10472;DHT22;5283;48.876;8.962;2024-01-30T02:58:20;-1.30;99.90
10472;DHT22;5283;48.876;8.962;2024-01-30T03:00:46;-1.20;99.90
10472;DHT22;5283;48.876;8.962;2024-01-30T03:03:13;-1.20;99.90
10472;DHT22;5283;48.876;8.962;2024-01-30T03:05:40;-1.20;99.90
10472;DHT22;5283;48.876;8.962;2024-01-30T03:08:06;-1.20;99.90
10472;DHT22;5283;48.876;8.962;2024-01-30T03:10:33;-1.20;99.90
10472;DHT22;5283;48.876;8.962;2024-01-30T03:13:00;-1.20;99.90
10472;DHT22;5283;48.876;8.962;2024-01-30T03:15:26;-1.20;99.90
10472;DHT22;5283;48.876;8.962;2024-01-30T03:17:53;-1.20;99.90
10472;DHT22;5283;48.876;8.962;2024-01-30T03:20:20;-1.20;99.90
10472;DHT22;5283;48.876;8.962;2024-01-30T03:22:47;-1.20;99.90
10472;DHT22;5283;48.876;8.962;2024-01-30T03:25:14;-1.20;99.90
10472;DHT22;5283;48.876;8.962;2024-01-30T03:27:40;-1.20;99.90
10472;DHT22;5283;48.876;8.962;2024-01-30T03:30:07;-1.10;99.90
10472;DHT22;5283;48.876;8.962;2024-01-30T03:32:34;-1.20;99.90
10472;DHT22;5283;48.876;8.962;2024-01-30T03:35:01;-1.30;99.90
10472;DHT22;5283;48.876;8.962;2024-01-30T03:37:28;-1.30;99.90
10472;DHT22;5283;48.876;8.962;2024-01-30T03:39:55;-1.40;99.90
10472;DHT22;5283;48.876;8.962;2024-01-30T03:42:22;-1.30;99.90
10472;DHT22;5283;48.876;8.962;2024-01-30T03:44:48;-1.30;99.90
10472;DHT22;5283;48.876;8.962;2024-01-30T03:47:18;-1.30;99.90
10472;DHT22;5283;48.876;8.962;2024-01-30T03:49:45;-1.30;99.90
10472;DHT22;5283;48.876;8.962;2024-01-30T03:52:12;-1.40;99.90
10472;DHT22;5283;48.876;8.962;2024-01-30T03:54:39;-1.30;99.90
10472;DHT22;5283;48.876;8.962;2024-01-30T03:57:05;-1.30;99.90
10472;DHT22;5283;48.876;8.962;2024-01-30T03:59:32;-1.30;99.90
10472;DHT22;5283;48.876;8.962;2024-01-30T04:01:59;-1.30;99.90
10472;DHT22;5283;48.876;8.962;2024-01-30T04:04:26;-1.30;99.90
10472;DHT22;5283;48.876;8.962;2024-01-30T04:06:53;-1.30;99.90
10472;DHT22;5283;48.876;8.962;2024-01-30T04:09:19;-1.30;99.90
10472;DHT22;5283;48.876;8.962;2024-01-30T04:11:46;-1.30;99.90
10472;DHT22;5283;48.876;8.962;2024-01-30T04:14:13;-1.40;99.90
10472;DHT22;5283;48.876;8.962;2024-01-30T04:16:39;-1.40;99.90
10472;DHT22;5283;48.876;8.962;2024-01-30T04:19:06;-1.40;99.90
10472;DHT22;5283;48.876;8.962;2024-01-30T04:21:33;-1.40;99.90
10472;DHT22;5283;48.876;8.962;2024-01-30T04:23:59;-1.00;99.90
10472;DHT22;5283;48.876;8.962;2024-01-30T04:26:26;-0.80;99.90
10472;DHT22;5283;48.876;8.962;2024-01-30T04:28:53;-0.70;99.90
10472;DHT22;5283;48.876;8.962;2024-01-30T04:31:19;-0.50;99.90
10472;DHT22;5283;48.876;8.962;2024-01-30T04:33:46;-0.50;99.90
10472;DHT22;5283;48.876;8.962;2024-01-30T04:36:13;-0.50;99.90
10472;DHT22;5283;48.876;8.962;2024-01-30T04:38:40;-0.70;99.90
10472;DHT22;5283;48.876;8.962;2024-01-30T04:41:07;-0.90;99.90
10472;DHT22;5283;48.876;8.962;2024-01-30T04:43:34;-0.90;99.90
10472;DHT22;5283;48.876;8.962;2024-01-30T04:46:01;-1.00;99.90
10472;DHT22;5283;48.876;8.962;2024-01-30T04:48:28;-1.00;99.90
10472;DHT22;5283;48.876;8.962;2024-01-30T04:50:54;-0.90;99.90
10472;DHT22;5283;48.876;8.962;2024-01-30T04:53:22;-0.90;99.90
10472;DHT22;5283;48.876;8.962;2024-01-30T04:55:49;-0.90;99.90
10472;DHT22;5283;48.876;8.962;2024-01-30T04:58:16;-1.00;99.90
10472;DHT22;5283;48.876;8.962;2024-01-30T05:00:43;-1.10;99.90
10472;DHT22;5283;48.876;8.962;2024-01-30T05:03:10;-1.00;99.90
10472;DHT22;5283;48.876;8.962;2024-01-30T05:05:36;-1.10;99.90
10472;DHT22;5283;48.876;8.962;2024-01-30T05:08:03;-1.10;99.90
10472;DHT22;5283;48.876;8.962;2024-01-30T05:10:30;-1.20;99.90
10472;DHT22;5283;48.876;8.962;2024-01-30T05:12:57;-1.40;99.90
10472;DHT22;5283;48.876;8.962;2024-01-30T05:15:24;-1.40;99.90
10472;DHT22;5283;48.876;8.962;2024-01-30T05:17:50;-1.30;99.90
10472;DHT22;5283;48.876;8.962;2024-01-30T05:20:17;-1.20;99.90
10472;DHT22;5283;48.876;8.962;2024-01-30T05:22:44;-1.20;99.90
10472;DHT22;5283;48.876;8.962;2024-01-30T05:25:15;-1.20;99.90
10472;DHT22;5283;48.876;8.962;2024-01-30T05:27:41;-1.30;99.90
10472;DHT22;5283;48.876;8.962;2024-01-30T05:30:09;-1.40;99.90
10472;DHT22;5283;48.876;8.962;2024-01-30T05:32:36;-1.50;99.90
10472;DHT22;5283;48.876;8.962;2024-01-30T05:35:03;-1.60;99.90
10472;DHT22;5283;48.876;8.962;2024-01-30T05:37:29;-1.60;99.90
10472;DHT22;5283;48.876;8.962;2024-01-30T05:39:56;-1.80;99.90
10472;DHT22;5283;48.876;8.962;2024-01-30T05:42:24;-1.70;99.90
10472;DHT22;5283;48.876;8.962;2024-01-30T05:44:51;-1.60;99.90
10472;DHT22;5283;48.876;8.962;2024-01-30T05:47:17;-1.50;99.90
10472;DHT22;5283;48.876;8.962;2024-01-30T05:49:44;-1.50;99.90
10472;DHT22;5283;48.876;8.962;2024-01-30T05:52:11;-1.50;99.90
10472;DHT22;5283;48.876;8.962;2024-01-30T05:54:37;-1.50;99.90
10472;DHT22;5283;48.876;8.962;2024-01-30T05:57:04;-1.60;99.90
10472;DHT22;5283;48.876;8.962;2024-01-30T05:59:32;-1.70;99.90
10472;DHT22;5283;48.876;8.962;2024-01-30T06:01:58;-1.70;99.90
10472;DHT22;5283;48.876;8.962;2024-01-30T06:04:25;-1.70;99.90
10472;DHT22;5283;48.876;8.962;2024-01-30T06:06:52;-1.70;99.90
10472;DHT22;5283;48.876;8.962;2024-01-30T06:09:19;-1.70;99.90
10472;DHT22;5283;48.876;8.962;2024-01-30T06:11:45;-1.80;99.90
10472;DHT22;5283;48.876;8.962;2024-01-30T06:14:12;-1.80;99.90
10472;DHT22;5283;48.876;8.962;2024-01-30T06:16:39;-1.80;99.90
10472;DHT22;5283;48.876;8.962;2024-01-30T06:19:06;-1.90;99.90
10472;DHT22;5283;48.876;8.962;2024-01-30T06:21:32;-1.90;99.90
10472;DHT22;5283;48.876;8.962;2024-01-30T06:24:03;-1.80;99.90
10472;DHT22;5283;48.876;8.962;2024-01-30T06:26:30;-1.90;99.90
10472;DHT22;5283;48.876;8.962;2024-01-30T06:28:56;-1.90;99.90
10472;DHT22;5283;48.876;8.962;2024-01-30T06:31:23;-2.00;99.90
10472;DHT22;5283;48.876;8.962;2024-01-30T06:33:50;-2.00;99.90
10472;DHT22;5283;48.876;8.962;2024-01-30T06:36:17;-2.10;99.90
10472;DHT22;5283;48.876;8.962;2024-01-30T06:38:44;-2.00;99.90
10472;DHT22;5283;48.876;8.962;2024-01-30T06:41:10;-1.90;99.90
10472;DHT22;5283;48.876;8.962;2024-01-30T06:43:37;-1.80;99.90
10472;DHT22;5283;48.876;8.962;2024-01-30T06:46:04;-1.80;99.90
10472;DHT22;5283;48.876;8.962;2024-01-30T06:48:30;-1.80;99.90
10472;DHT22;5283;48.876;8.962;2024-01-30T06:50:57;-1.90;99.90
10472;DHT22;5283;48.876;8.962;2024-01-30T06:53:24;-1.80;99.90
10472;DHT22;5283;48.876;8.962;2024-01-30T06:55:52;-1.70;99.90
10472;DHT22;5283;48.876;8.962;2024-01-30T06:58:19;-1.60;99.90
10472;DHT22;5283;48.876;8.962;2024-01-30T07:00:46;-1.60;99.90
10472;DHT22;5283;48.876;8.962;2024-01-30T07:03:13;-1.60;99.90
10472;DHT22;5283;48.876;8.962;2024-01-30T07:05:39;-1.60;99.90
10472;DHT22;5283;48.876;8.962;2024-01-30T07:08:06;-1.60;99.90
10472;DHT22;5283;48.876;8.962;2024-01-30T07:10:33;-1.50;99.90
10472;DHT22;5283;48.876;8.962;2024-01-30T07:13:01;-1.40;99.90
10472;DHT22;5283;48.876;8.962;2024-01-30T07:15:28;-1.40;99.90
10472;DHT22;5283;48.876;8.962;2024-01-30T07:17:55;-1.50;99.90
10472;DHT22;5283;48.876;8.962;2024-01-30T07:20:22;-1.40;99.90
10472;DHT22;5283;48.876;8.962;2024-01-30T07:22:48;-1.30;99.90
10472;DHT22;5283;48.876;8.962;2024-01-30T07:25:15;-1.30;99.90
10472;DHT22;5283;48.876;8.962;2024-01-30T07:27:43;-1.30;99.90
10472;DHT22;5283;48.876;8.962;2024-01-30T07:30:10;-1.20;99.90
10472;DHT22;5283;48.876;8.962;2024-01-30T07:32:37;-1.20;99.90
10472;DHT22;5283;48.876;8.962;2024-01-30T07:35:04;-1.10;99.90
10472;DHT22;5283;48.876;8.962;2024-01-30T07:37:32;-0.90;99.90
10472;DHT22;5283;48.876;8.962;2024-01-30T07:39:58;-0.90;99.90
10472;DHT22;5283;48.876;8.962;2024-01-30T07:42:25;-0.90;99.90
10472;DHT22;5283;48.876;8.962;2024-01-30T07:44:52;-0.80;99.90
10472;DHT22;5283;48.876;8.962;2024-01-30T07:47:18;-0.70;99.90
10472;DHT22;5283;48.876;8.962;2024-01-30T07:49:45;-0.60;99.90
10472;DHT22;5283;48.876;8.962;2024-01-30T07:52:12;-0.50;99.90
10472;DHT22;5283;48.876;8.962;2024-01-30T07:54:39;-0.40;99.90
10472;DHT22;5283;48.876;8.962;2024-01-30T07:57:05;-0.30;99.90
10472;DHT22;5283;48.876;8.962;2024-01-30T07:59:32;-0.20;99.90
10472;DHT22;5283;48.876;8.962;2024-01-30T08:01:59;-0.10;99.90
10472;DHT22;5283;48.876;8.962;2024-01-30T08:04:25;0.10;99.90
10472;DHT22;5283;48.876;8.962;2024-01-30T08:06:52;0.10;99.90
10472;DHT22;5283;48.876;8.962;2024-01-30T08:09:19;0.20;99.90
10472;DHT22;5283;48.876;8.962;2024-01-30T08:11:46;0.20;99.90
10472;DHT22;5283;48.876;8.962;2024-01-30T08:14:12;0.30;99.90
10472;DHT22;5283;48.876;8.962;2024-01-30T08:16:40;0.40;99.90
10472;DHT22;5283;48.876;8.962;2024-01-30T08:19:07;0.50;99.90
10472;DHT22;5283;48.876;8.962;2024-01-30T08:21:33;0.60;99.90
10472;DHT22;5283;48.876;8.962;2024-01-30T08:24:04;0.70;99.90
10472;DHT22;5283;48.876;8.962;2024-01-30T08:26:32;0.90;99.90
10472;DHT22;5283;48.876;8.962;2024-01-30T08:28:59;1.10;99.90
10472;DHT22;5283;48.876;8.962;2024-01-30T08:31:26;1.20;99.90
10472;DHT22;5283;48.876;8.962;2024-01-30T08:33:53;1.40;99.90
10472;DHT22;5283;48.876;8.962;2024-01-30T08:36:20;1.60;99.90
10472;DHT22;5283;48.876;8.962;2024-01-30T08:38:47;1.70;99.90
10472;DHT22;5283;48.876;8.962;2024-01-30T08:41:13;1.90;99.90
10472;DHT22;5283;48.876;8.962;2024-01-30T08:43:41;1.80;99.90
10472;DHT22;5283;48.876;8.962;2024-01-30T08:46:08;1.90;99.90
10472;DHT22;5283;48.876;8.962;2024-01-30T08:48:36;2.10;99.90
10472;DHT22;5283;48.876;8.962;2024-01-30T08:51:02;2.10;99.90
10472;DHT22;5283;48.876;8.962;2024-01-30T08:53:29;2.20;99.90
10472;DHT22;5283;48.876;8.962;2024-01-30T08:55:56;2.40;99.90
10472;DHT22;5283;48.876;8.962;2024-01-30T08:58:25;2.50;99.90
10472;DHT22;5283;48.876;8.962;2024-01-30T09:00:52;2.60;99.90
10472;DHT22;5283;48.876;8.962;2024-01-30T09:03:19;2.60;99.90
10472;DHT22;5283;48.876;8.962;2024-01-30T09:05:46;2.80;99.90
10472;DHT22;5283;48.876;8.962;2024-01-30T09:08:12;2.90;99.90
10472;DHT22;5283;48.876;8.962;2024-01-30T09:10:39;3.10;99.90
10472;DHT22;5283;48.876;8.962;2024-01-30T09:13:07;3.40;99.90
10472;DHT22;5283;48.876;8.962;2024-01-30T09:15:34;3.40;99.90
10472;DHT22;5283;48.876;8.962;2024-01-30T09:18:01;3.50;99.90
10472;DHT22;5283;48.876;8.962;2024-01-30T09:20:28;3.60;99.90
10472;DHT22;5283;48.876;8.962;2024-01-30T09:22:56;3.70;99.90
10472;DHT22;5283;48.876;8.962;2024-01-30T09:25:22;3.90;99.90
10472;DHT22;5283;48.876;8.962;2024-01-30T09:27:49;4.00;99.90
10472;DHT22;5283;48.876;8.962;2024-01-30T09:30:16;4.10;99.90
10472;DHT22;5283;48.876;8.962;2024-01-30T09:32:43;4.30;99.90
10472;DHT22;5283;48.876;8.962;2024-01-30T09:35:11;4.20;99.90
10472;DHT22;5283;48.876;8.962;2024-01-30T09:37:38;4.30;99.90
10472;DHT22;5283;48.876;8.962;2024-01-30T09:40:05;4.50;99.90
10472;DHT22;5283;48.876;8.962;2024-01-30T09:42:34;4.70;99.90
10472;DHT22;5283;48.876;8.962;2024-01-30T09:45:05;4.80;99.90
10472;DHT22;5283;48.876;8.962;2024-01-30T09:47:42;5.00;99.90
10472;DHT22;5283;48.876;8.962;2024-01-30T09:50:10;5.20;99.90
10472;DHT22;5283;48.876;8.962;2024-01-30T09:52:37;5.30;99.90
10472;DHT22;5283;48.876;8.962;2024-01-30T09:55:05;5.50;99.90
10472;DHT22;5283;48.876;8.962;2024-01-30T09:57:32;5.70;99.90
10472;DHT22;5283;48.876;8.962;2024-01-30T09:59:59;5.80;99.90
10472;DHT22;5283;48.876;8.962;2024-01-30T10:02:25;5.80;99.90
10472;DHT22;5283;48.876;8.962;2024-01-30T10:04:52;5.90;99.90
10472;DHT22;5283;48.876;8.962;2024-01-30T10:07:19;5.90;99.90
10472;DHT22;5283;48.876;8.962;2024-01-30T10:09:46;5.90;99.90
10472;DHT22;5283;48.876;8.962;2024-01-30T10:12:13;5.90;99.90
10472;DHT22;5283;48.876;8.962;2024-01-30T10:14:40;6.10;99.90
10472;DHT22;5283;48.876;8.962;2024-01-30T10:17:11;6.20;99.90
10472;DHT22;5283;48.876;8.962;2024-01-30T10:19:40;6.10;99.90
10472;DHT22;5283;48.876;8.962;2024-01-30T10:22:08;6.10;99.90
10472;DHT22;5283;48.876;8.962;2024-01-30T10:24:36;6.20;99.90
10472;DHT22;5283;48.876;8.962;2024-01-30T10:27:05;6.30;99.90
10472;DHT22;5283;48.876;8.962;2024-01-30T10:29:32;6.40;99.90
10472;DHT22;5283;48.876;8.962;2024-01-30T10:32:00;6.60;99.90
10472;DHT22;5283;48.876;8.962;2024-01-30T10:34:27;6.70;99.90
10472;DHT22;5283;48.876;8.962;2024-01-30T10:37:12;6.90;99.90
10472;DHT22;5283;48.876;8.962;2024-01-30T10:39:47;6.90;99.90
10472;DHT22;5283;48.876;8.962;2024-01-30T10:42:15;6.80;99.90
10472;DHT22;5283;48.876;8.962;2024-01-30T10:45:05;6.90;99.90
10472;DHT22;5283;48.876;8.962;2024-01-30T10:47:36;6.90;99.90
10472;DHT22;5283;48.876;8.962;2024-01-30T10:50:04;7.00;99.90
10472;DHT22;5283;48.876;8.962;2024-01-30T10:52:32;7.10;99.90
10472;DHT22;5283;48.876;8.962;2024-01-30T10:54:59;7.20;99.90
10472;DHT22;5283;48.876;8.962;2024-01-30T10:57:27;7.30;99.90
10472;DHT22;5283;48.876;8.962;2024-01-30T10:59:58;7.40;99.90
10472;DHT22;5283;48.876;8.962;2024-01-30T11:02:25;7.40;99.90
10472;DHT22;5283;48.876;8.962;2024-01-30T11:04:58;7.50;99.90
10472;DHT22;5283;48.876;8.962;2024-01-30T11:07:29;7.50;99.90
10472;DHT22;5283;48.876;8.962;2024-01-30T11:10:00;7.50;99.90
10472;DHT22;5283;48.876;8.962;2024-01-30T11:12:37;7.70;99.90
10472;DHT22;5283;48.876;8.962;2024-01-30T11:15:14;7.70;99.90
10472;DHT22;5283;48.876;8.962;2024-01-30T11:20:16;7.60;99.90
10472;DHT22;5283;48.876;8.962;2024-01-30T11:22:46;7.60;99.90
10472;DHT22;5283;48.876;8.962;2024-01-30T11:25:17;7.50;99.90
10472;DHT22;5283;48.876;8.962;2024-01-30T11:27:46;7.50;99.90
10472;DHT22;5283;48.876;8.962;2024-01-30T11:30:30;7.40;99.90
10472;DHT22;5283;48.876;8.962;2024-01-30T11:33:08;7.50;99.90
10472;DHT22;5283;48.876;8.962;2024-01-30T11:35:43;7.40;99.90
10472;DHT22;5283;48.876;8.962;2024-01-30T11:38:11;7.50;99.90
10472;DHT22;5283;48.876;8.962;2024-01-30T11:40:39;7.60;99.90
10472;DHT22;5283;48.876;8.962;2024-01-30T11:43:08;7.70;99.90
10472;DHT22;5283;48.876;8.962;2024-01-30T11:45:35;7.80;99.90
10472;DHT22;5283;48.876;8.962;2024-01-30T11:48:03;7.80;99.90
10472;DHT22;5283;48.876;8.962;2024-01-30T11:50:31;7.80;99.90
10472;DHT22;5283;48.876;8.962;2024-01-30T11:52:59;7.80;99.90
10472;DHT22;5283;48.876;8.962;2024-01-30T11:55:26;7.70;99.90
10472;DHT22;5283;48.876;8.962;2024-01-30T11:57:57;7.80;99.90
10472;DHT22;5283;48.876;8.962;2024-01-30T12:00:25;7.70;99.90
10472;DHT22;5283;48.876;8.962;2024-01-30T12:02:53;7.60;99.90
10472;DHT22;5283;48.876;8.962;2024-01-30T12:05:23;7.60;99.90
10472;DHT22;5283;48.876;8.962;2024-01-30T12:07:50;7.80;99.90
10472;DHT22;5283;48.876;8.962;2024-01-30T12:10:18;7.80;99.90
10472;DHT22;5283;48.876;8.962;2024-01-30T12:12:50;8.10;99.90
10472;DHT22;5283;48.876;8.962;2024-01-30T12:15:18;8.40;99.90
10472;DHT22;5283;48.876;8.962;2024-01-30T12:17:45;8.60;99.90
10472;DHT22;5283;48.876;8.962;2024-01-30T12:20:14;8.80;99.90
10472;DHT22;5283;48.876;8.962;2024-01-30T12:22:46;8.90;99.90
10472;DHT22;5283;48.876;8.962;2024-01-30T12:25:15;9.10;99.90
10472;DHT22;5283;48.876;8.962;2024-01-30T12:27:44;9.10;99.90
10472;DHT22;5283;48.876;8.962;2024-01-30T12:30:13;9.20;99.90
10472;DHT22;5283;48.876;8.962;2024-01-30T12:32:42;9.40;99.90
10472;DHT22;5283;48.876;8.962;2024-01-30T12:35:14;9.50;99.90
10472;DHT22;5283;48.876;8.962;2024-01-30T12:37:43;9.70;99.90
10472;DHT22;5283;48.876;8.962;2024-01-30T12:40:11;9.80;99.90
10472;DHT22;5283;48.876;8.962;2024-01-30T12:42:40;10.00;99.90
10472;DHT22;5283;48.876;8.962;2024-01-30T12:45:09;10.00;99.90
10472;DHT22;5283;48.876;8.962;2024-01-30T12:47:36;10.10;99.90
10472;DHT22;5283;48.876;8.962;2024-01-30T12:50:03;10.20;99.90
10472;DHT22;5283;48.876;8.962;2024-01-30T12:52:30;9.90;99.90
10472;DHT22;5283;48.876;8.962;2024-01-30T12:54:57;9.80;99.90
10472;DHT22;5283;48.876;8.962;2024-01-30T12:57:24;10.00;99.90
10472;DHT22;5283;48.876;8.962;2024-01-30T12:59:50;10.20;99.90
10472;DHT22;5283;48.876;8.962;2024-01-30T13:02:17;10.60;99.90
10472;DHT22;5283;48.876;8.962;2024-01-30T13:04:44;10.80;99.90
10472;DHT22;5283;48.876;8.962;2024-01-30T13:07:12;11.00;99.90
10472;DHT22;5283;48.876;8.962;2024-01-30T13:09:38;11.10;99.90
10472;DHT22;5283;48.876;8.962;2024-01-30T13:12:05;11.20;99.90
10472;DHT22;5283;48.876;8.962;2024-01-30T13:14:32;11.20;99.90
10472;DHT22;5283;48.876;8.962;2024-01-30T13:16:59;11.30;99.90
10472;DHT22;5283;48.876;8.962;2024-01-30T13:19:26;11.50;99.90
10472;DHT22;5283;48.876;8.962;2024-01-30T13:21:53;11.70;99.90
10472;DHT22;5283;48.876;8.962;2024-01-30T13:24:20;11.90;99.90
10472;DHT22;5283;48.876;8.962;2024-01-30T13:26:49;12.10;99.90
10472;DHT22;5283;48.876;8.962;2024-01-30T13:29:16;12.20;99.90
10472;DHT22;5283;48.876;8.962;2024-01-30T13:31:43;12.30;99.90
10472;DHT22;5283;48.876;8.962;2024-01-30T13:34:10;12.40;99.90
10472;DHT22;5283;48.876;8.962;2024-01-30T13:36:38;12.50;99.90
10472;DHT22;5283;48.876;8.962;2024-01-30T13:39:05;12.40;99.90
10472;DHT22;5283;48.876;8.962;2024-01-30T13:41:36;12.10;99.90
10472;DHT22;5283;48.876;8.962;2024-01-30T13:44:03;11.80;99.90
10472;DHT22;5283;48.876;8.962;2024-01-30T13:46:30;11.60;99.90
10472;DHT22;5283;48.876;8.962;2024-01-30T13:48:57;11.40;99.90
10472;DHT22;5283;48.876;8.962;2024-01-30T13:51:24;11.40;99.90
10472;DHT22;5283;48.876;8.962;2024-01-30T13:53:51;11.40;99.90
10472;DHT22;5283;48.876;8.962;2024-01-30T13:56:17;11.50;99.90
10472;DHT22;5283;48.876;8.962;2024-01-30T13:58:44;11.60;99.90
10472;DHT22;5283;48.876;8.962;2024-01-30T14:01:11;11.70;99.90
10472;DHT22;5283;48.876;8.962;2024-01-30T14:03:38;11.90;99.90
10472;DHT22;5283;48.876;8.962;2024-01-30T14:06:05;12.00;99.90
10472;DHT22;5283;48.876;8.962;2024-01-30T14:08:32;12.00;99.90
10472;DHT22;5283;48.876;8.962;2024-01-30T14:10:59;11.90;99.90
10472;DHT22;5283;48.876;8.962;2024-01-30T14:13:26;11.90;99.90
10472;DHT22;5283;48.876;8.962;2024-01-30T14:15:53;11.70;99.90
10472;DHT22;5283;48.876;8.962;2024-01-30T14:18:20;11.30;99.90
10472;DHT22;5283;48.876;8.962;2024-01-30T14:20:47;11.00;99.90
10472;DHT22;5283;48.876;8.962;2024-01-30T14:23:14;10.90;99.90
10472;DHT22;5283;48.876;8.962;2024-01-30T14:25:42;10.80;99.90
10472;DHT22;5283;48.876;8.962;2024-01-30T14:28:08;10.70;99.90
10472;DHT22;5283;48.876;8.962;2024-01-30T14:30:35;10.80;99.90
10472;DHT22;5283;48.876;8.962;2024-01-30T14:33:02;10.90;99.90
10472;DHT22;5283;48.876;8.962;2024-01-30T14:35:29;11.00;99.90
10472;DHT22;5283;48.876;8.962;2024-01-30T14:37:55;11.00;99.90
10472;DHT22;5283;48.876;8.962;2024-01-30T14:40:23;11.00;99.90
10472;DHT22;5283;48.876;8.962;2024-01-30T14:42:50;10.90;99.90
10472;DHT22;5283;48.876;8.962;2024-01-30T14:45:16;10.80;99.90
10472;DHT22;5283;48.876;8.962;2024-01-30T14:47:43;10.80;99.90
10472;DHT22;5283;48.876;8.962;2024-01-30T14:50:10;10.70;99.90
10472;DHT22;5283;48.876;8.962;2024-01-30T14:52:37;10.60;99.90
10472;DHT22;5283;48.876;8.962;2024-01-30T14:55:06;10.50;99.90
10472;DHT22;5283;48.876;8.962;2024-01-30T14:57:33;10.50;99.90
10472;DHT22;5283;48.876;8.962;2024-01-30T15:00:01;10.30;99.90
10472;DHT22;5283;48.876;8.962;2024-01-30T15:02:28;10.10;99.90
10472;DHT22;5283;48.876;8.962;2024-01-30T15:04:55;9.70;99.90
10472;DHT22;5283;48.876;8.962;2024-01-30T15:07:21;9.50;99.90
10472;DHT22;5283;48.876;8.962;2024-01-30T15:09:50;9.40;99.90
10472;DHT22;5283;48.876;8.962;2024-01-30T15:12:17;9.30;99.90
10472;DHT22;5283;48.876;8.962;2024-01-30T15:14:43;9.10;99.90
10472;DHT22;5283;48.876;8.962;2024-01-30T15:17:20;8.90;99.90
10472;DHT22;5283;48.876;8.962;2024-01-30T15:19:47;8.70;99.90
10472;DHT22;5283;48.876;8.962;2024-01-30T15:22:14;8.60;99.90
10472;DHT22;5283;48.876;8.962;2024-01-30T15:24:41;8.50;99.90
10472;DHT22;5283;48.876;8.962;2024-01-30T15:27:08;8.40;99.90
10472;DHT22;5283;48.876;8.962;2024-01-30T15:29:34;8.30;99.90
10472;DHT22;5283;48.876;8.962;2024-01-30T15:32:01;8.20;99.90
10472;DHT22;5283;48.876;8.962;2024-01-30T15:34:29;8.10;99.90
10472;DHT22;5283;48.876;8.962;2024-01-30T15:36:56;8.00;99.90
10472;DHT22;5283;48.876;8.962;2024-01-30T15:39:23;8.00;99.90
10472;DHT22;5283;48.876;8.962;2024-01-30T15:41:51;7.90;99.90
10472;DHT22;5283;48.876;8.962;2024-01-30T15:44:17;7.80;99.90
10472;DHT22;5283;48.876;8.962;2024-01-30T15:46:44;7.70;99.90
10472;DHT22;5283;48.876;8.962;2024-01-30T15:49:11;7.60;99.90
10472;DHT22;5283;48.876;8.962;2024-01-30T15:51:37;7.50;99.90
10472;DHT22;5283;48.876;8.962;2024-01-30T15:54:04;7.50;99.90
10472;DHT22;5283;48.876;8.962;2024-01-30T15:56:31;7.40;99.90